KAGS

Augusta Regional at Bush Field Airport

Augusta, Georgia, USA
METAR KAGS 160553Z AUTO 27007KT 10SM FEW080 09/07 A3002 RMK AO2 SLP164 T00890072 10128 20072 58001
Observed Flight Rules
Dec-16 @ 05:53 UTC (an hour ago) Visual Flight Rules
Wind Visibility Clouds
270° at 7 knots 10 miles
  • Few at 8,000' AGL
Temperatures Readings
Current 9°C / 48°F
Dewpoint 7°C / 45°F
Humidity 87%
Altimeter 30.02" Hg
Pressure 1016.4 hPa
Elevation 44
METAR KAGS 160553Z AUTO 27007KT 10SM FEW080 09/07 A3002 RMK AO2 SLP164 T00890072 10128 20072 58001
Observed Flight Rules
Dec-16 @ 05:53 UTC
(an hour ago)
VFR
Wind Visibility
270° at 7 knots 10 miles
Clouds
  • Few at 8,000' AGL
Temperature Dewpoint
9°C / 48°F 7°C / 45°F
Humidity Altimeter Pressure
87% 30.02" Hg 1016.4 hPa